Time;durP1;ratioP1;P1;durP2;ratioP2;P2;SDS_P1;SDS_P2;PMS_P1;PMS_P2;Temp;Humidity;BMP_temperature;BMP_pressure;BME280_temperature;BME280_humidity;BME280_pressure;Samples;Min_cycle;Max_cycle;Signal;HPM_P1;HPM_P2
2022/01/31 00:02:35;;;;;;;8.80;2.80;;;;;;;;;;8292678;28;20730;-61
2022/01/31 00:06:35;;;;;;;8.63;2.97;;;;;;;;;;8293052;28;20811;-61
2022/01/31 00:10:35;;;;;;;12.10;2.70;;;;;;;;;;8293628;28;20021;-61
2022/01/31 00:14:41;;;;;;;9.90;3.00;;;;;;;;;;8291825;28;20028;-61
2022/01/31 00:18:41;;;;;;;12.20;2.65;;;;;;;;;;8291284;28;20370;-61
2022/01/31 00:22:41;;;;;;;12.45;2.90;;;;;;;;;;8292996;28;20413;-61
2022/01/31 00:26:41;;;;;;;7.78;2.28;;;;;;;;;;8292010;28;20434;-61
2022/01/31 00:30:42;;;;;;;9.80;2.65;;;;;;;;;;8290078;28;20040;-61
2022/01/31 00:34:42;;;;;;;14.38;3.05;;;;;;;;;;8293809;28;20029;-61
2022/01/31 00:38:42;;;;;;;11.25;3.60;;;;;;;;;;8288881;28;20356;-61
2022/01/31 00:42:42;;;;;;;7.88;2.55;;;;;;;;;;8291868;28;20280;-61
2022/01/31 00:46:48;;;;;;;6.80;2.93;;;;;;;;;;8289862;28;20730;-61
2022/01/31 00:50:48;;;;;;;15.18;3.20;;;;;;;;;;8290898;28;20309;-61
2022/01/31 00:54:49;;;;;;;10.77;2.67;;;;;;;;;;8291552;28;20044;-61
2022/01/31 00:58:49;;;;;;;15.65;4.22;;;;;;;;;;8289149;28;20311;-61
2022/01/31 01:02:49;;;;;;;12.52;3.90;;;;;;;;;;8290783;28;20064;-62
2022/01/31 01:06:50;;;;;;;11.82;3.65;;;;;;;;;;8289693;28;20516;-61
2022/01/31 01:10:50;;;;;;;13.25;2.85;;;;;;;;;;8290672;28;20036;-62
2022/01/31 01:14:50;;;;;;;11.20;4.32;;;;;;;;;;8292565;28;20409;-62
2022/01/31 01:18:50;;;;;;;13.48;4.68;;;;;;;;;;8287717;28;20475;-61
2022/01/31 01:22:50;;;;;;;15.60;4.05;;;;;;;;;;8291333;28;20024;-61
2022/01/31 01:26:51;;;;;;;16.23;3.40;;;;;;;;;;8289283;28;20371;-62
2022/01/31 01:30:51;;;;;;;10.20;3.00;;;;;;;;;;8289496;28;20493;-62
2022/01/31 01:34:53;;;;;;;9.80;3.30;;;;;;;;;;8287554;28;20017;-62
2022/01/31 01:38:53;;;;;;;12.77;3.10;;;;;;;;;;8286020;28;20330;-62
2022/01/31 01:42:53;;;;;;;14.82;3.65;;;;;;;;;;8288746;28;20047;-62
2022/01/31 01:46:54;;;;;;;14.25;3.05;;;;;;;;;;8288331;28;20289;-61
2022/01/31 01:50:55;;;;;;;11.32;3.20;;;;;;;;;;8287610;28;20029;-61
2022/01/31 01:54:55;;;;;;;12.80;2.88;;;;;;;;;;8292416;28;20027;-62
2022/01/31 01:58:56;;;;;;;11.07;3.03;;;;;;;;;;8287750;28;20017;-61
2022/01/31 02:02:57;;;;;;;11.40;3.47;;;;;;;;;;8288199;28;20029;-62
2022/01/31 02:06:57;;;;;;;12.43;3.13;;;;;;;;;;8289353;28;20033;-62
2022/01/31 02:10:57;;;;;;;13.50;3.20;;;;;;;;;;8288796;28;20013;-61
2022/01/31 02:14:58;;;;;;;16.33;3.30;;;;;;;;;;8287249;28;20033;-62
2022/01/31 02:18:58;;;;;;;8.73;2.80;;;;;;;;;;8289291;28;20520;-62
2022/01/31 02:22:58;;;;;;;12.20;3.40;;;;;;;;;;8286086;28;20474;-61
2022/01/31 02:27:01;;;;;;;19.35;3.83;;;;;;;;;;8290008;28;20025;-62
2022/01/31 02:31:02;;;;;;;16.83;3.63;;;;;;;;;;8288064;28;20565;-62
2022/01/31 02:35:04;;;;;;;14.07;3.00;;;;;;;;;;8296626;28;20554;-62
2022/01/31 02:39:05;;;;;;;14.68;3.20;;;;;;;;;;8291965;28;20036;-62
2022/01/31 02:43:06;;;;;;;12.93;3.35;;;;;;;;;;8296932;28;20077;-61
2022/01/31 02:47:10;;;;;;;13.52;3.63;;;;;;;;;;8294314;28;20123;-62
2022/01/31 02:51:12;;;;;;;14.82;3.10;;;;;;;;;;8294040;28;20103;-62
2022/01/31 02:55:12;;;;;;;11.52;3.47;;;;;;;;;;8296409;28;20567;-62
2022/01/31 02:59:13;;;;;;;11.93;3.17;;;;;;;;;;8291649;28;20371;-62
2022/01/31 03:03:13;;;;;;;16.50;3.70;;;;;;;;;;8294872;28;20284;-62
2022/01/31 03:07:13;;;;;;;18.30;3.67;;;;;;;;;;8292693;28;20151;-62
2022/01/31 03:11:13;;;;;;;11.40;3.35;;;;;;;;;;8294273;28;20025;-62
2022/01/31 03:15:14;;;;;;;14.63;3.63;;;;;;;;;;8293913;28;20835;-62
2022/01/31 03:19:18;;;;;;;15.10;3.30;;;;;;;;;;8294324;28;20029;-62
2022/01/31 03:23:19;;;;;;;15.30;3.85;;;;;;;;;;8293876;28;20037;-63
2022/01/31 03:27:19;;;;;;;11.02;3.33;;;;;;;;;;8293548;28;20068;-62
2022/01/31 03:31:20;;;;;;;18.40;3.78;;;;;;;;;;8291817;28;20195;-62
2022/01/31 03:35:22;;;;;;;15.82;4.63;;;;;;;;;;8292728;28;20073;-62
2022/01/31 03:39:22;;;;;;;11.75;3.40;;;;;;;;;;8294226;28;20560;-62
2022/01/31 03:43:22;;;;;;;17.88;3.58;;;;;;;;;;8294131;28;20569;-62
2022/01/31 03:47:23;;;;;;;15.35;3.60;;;;;;;;;;8292351;28;20045;-62
2022/01/31 03:51:23;;;;;;;14.52;3.63;;;;;;;;;;8291096;28;20517;-62
2022/01/31 03:55:23;;;;;;;7.97;3.70;;;;;;;;;;8293963;28;20017;-62
2022/01/31 03:59:23;;;;;;;9.20;3.50;;;;;;;;;;8292379;28;20144;-62
2022/01/31 04:03:24;;;;;;;16.05;3.72;;;;;;;;;;8289159;28;20068;-62
2022/01/31 04:07:24;;;;;;;19.55;4.20;;;;;;;;;;8293805;28;20414;-62
2022/01/31 04:11:24;;;;;;;16.95;4.57;;;;;;;;;;8288712;28;20040;-62
2022/01/31 04:15:24;;;;;;;19.20;3.70;;;;;;;;;;8292035;28;20037;-62
2022/01/31 04:19:24;;;;;;;19.75;4.38;;;;;;;;;;8291084;28;20141;-62
2022/01/31 04:23:27;;;;;;;14.90;3.85;;;;;;;;;;8292256;28;20031;-62
2022/01/31 04:27:32;;;;;;;14.43;3.50;;;;;;;;;;8288225;28;20382;-62
2022/01/31 04:31:44;;;;;;;16.98;4.00;;;;;;;;;;8292255;28;20476;-62
2022/01/31 04:35:44;;;;;;;20.05;4.28;;;;;;;;;;8292010;28;20025;-62
2022/01/31 04:39:45;;;;;;;19.40;3.70;;;;;;;;;;8290450;28;20550;-62
2022/01/31 04:43:47;;;;;;;16.98;4.25;;;;;;;;;;8289619;28;20040;-62
2022/01/31 04:47:47;;;;;;;20.52;4.45;;;;;;;;;;8289775;28;20049;-62
2022/01/31 04:51:48;;;;;;;20.88;5.30;;;;;;;;;;8289786;28;20030;-62
2022/01/31 04:55:48;;;;;;;20.55;4.68;;;;;;;;;;8292117;28;20021;-62
2022/01/31 04:59:50;;;;;;;12.98;3.78;;;;;;;;;;8288185;28;20369;-62
2022/01/31 05:03:50;;;;;;;15.15;3.67;;;;;;;;;;8288632;28;20037;-62
2022/01/31 05:07:53;;;;;;;16.08;4.05;;;;;;;;;;8291781;28;20122;-62
2022/01/31 05:11:54;;;;;;;16.83;4.20;;;;;;;;;;8289279;28;20176;-62
2022/01/31 05:15:55;;;;;;;16.80;4.05;;;;;;;;;;8291501;28;20060;-62
2022/01/31 05:19:55;;;;;;;10.98;3.97;;;;;;;;;;8287684;28;20576;-62
2022/01/31 05:23:56;;;;;;;12.88;3.60;;;;;;;;;;8291158;28;20299;-62
2022/01/31 05:27:56;;;;;;;17.58;4.20;;;;;;;;;;8286736;28;20169;-62
2022/01/31 05:31:56;;;;;;;11.13;3.33;;;;;;;;;;8288831;28;20090;-62
2022/01/31 05:35:56;;;;;;;9.93;3.08;;;;;;;;;;8287939;28;20040;-62
2022/01/31 05:39:57;;;;;;;11.30;4.13;;;;;;;;;;8289505;28;20029;-62
2022/01/31 05:43:57;;;;;;;11.95;3.72;;;;;;;;;;8288809;28;20037;-62
2022/01/31 05:47:57;;;;;;;6.75;3.55;;;;;;;;;;8291471;28;21025;-62
2022/01/31 05:52:04;;;;;;;10.27;3.77;;;;;;;;;;8289319;28;20395;-62
2022/01/31 05:56:04;;;;;;;7.45;2.97;;;;;;;;;;8287610;28;20327;-62
2022/01/31 06:00:08;;;;;;;7.97;2.72;;;;;;;;;;8288204;28;20537;-62
2022/01/31 06:04:09;;;;;;;13.48;2.80;;;;;;;;;;8289561;28;20041;-62
2022/01/31 06:08:09;;;;;;;7.85;2.83;;;;;;;;;;8289986;28;20065;-62
2022/01/31 06:12:11;;;;;;;7.90;2.65;;;;;;;;;;8287008;28;20950;-62
2022/01/31 06:16:11;;;;;;;8.60;2.58;;;;;;;;;;8288642;28;20046;-62
2022/01/31 06:20:12;;;;;;;5.60;2.28;;;;;;;;;;8287468;28;20532;-62
2022/01/31 06:24:14;;;;;;;5.28;2.30;;;;;;;;;;8287972;28;20025;-62
2022/01/31 06:28:15;;;;;;;6.32;3.15;;;;;;;;;;8290309;28;20034;-62
2022/01/31 06:32:15;;;;;;;6.18;1.80;;;;;;;;;;8285884;28;20740;-62
2022/01/31 06:36:15;;;;;;;3.17;1.63;;;;;;;;;;8288055;28;20075;-62
2022/01/31 06:40:15;;;;;;;3.40;1.75;;;;;;;;;;8284287;28;20022;-62
2022/01/31 06:44:15;;;;;;;4.22;1.75;;;;;;;;;;8291239;28;20128;-62
2022/01/31 06:48:16;;;;;;;2.10;1.48;;;;;;;;;;8287302;28;20396;-62
2022/01/31 06:52:16;;;;;;;2.35;1.30;;;;;;;;;;8287931;28;20487;-62
2022/01/31 06:56:17;;;;;;;4.18;1.80;;;;;;;;;;8286412;28;20254;-62
2022/01/31 07:00:18;;;;;;;5.15;1.90;;;;;;;;;;8283139;28;20021;-62
2022/01/31 07:04:18;;;;;;;3.78;1.60;;;;;;;;;;8290986;28;20138;-62
2022/01/31 07:08:18;;;;;;;3.10;1.50;;;;;;;;;;8288456;28;20026;-62
2022/01/31 07:12:22;;;;;;;2.85;1.40;;;;;;;;;;8285880;28;20267;-62
2022/01/31 07:16:22;;;;;;;4.60;1.50;;;;;;;;;;8286892;28;20042;-62
2022/01/31 07:20:34;;;;;;;3.15;1.80;;;;;;;;;;8286537;28;20026;-63
2022/01/31 07:28:37;;;;;;;1.67;1.58;;;;;;;;;;8293711;28;20053;-62
2022/01/31 07:32:41;;;;;;;3.38;1.60;;;;;;;;;;8292254;28;20502;-62
2022/01/31 07:36:42;;;;;;;6.18;1.80;;;;;;;;;;8290721;28;20029;-62
2022/01/31 07:40:42;;;;;;;3.55;1.65;;;;;;;;;;8295699;28;20030;-62
2022/01/31 07:44:42;;;;;;;1.95;1.20;;;;;;;;;;8293999;28;20292;-62
2022/01/31 07:48:43;;;;;;;6.03;2.20;;;;;;;;;;8291813;28;20330;-62
2022/01/31 07:52:43;;;;;;;2.57;1.27;;;;;;;;;;8288886;28;20279;-62
2022/01/31 07:56:44;;;;;;;2.00;1.38;;;;;;;;;;8290623;28;20302;-63
2022/01/31 08:00:44;;;;;;;3.30;1.10;;;;;;;;;;8293152;28;20323;-63
2022/01/31 08:04:45;;;;;;;5.88;1.30;;;;;;;;;;8295091;28;20032;-62
2022/01/31 08:08:45;;;;;;;1.25;1.10;;;;;;;;;;8291720;28;20617;-62
2022/01/31 08:12:46;;;;;;;3.55;1.20;;;;;;;;;;8292031;28;20024;-62
2022/01/31 08:16:46;;;;;;;1.63;1.13;;;;;;;;;;8291318;28;20664;-62
2022/01/31 08:20:46;;;;;;;3.13;1.30;;;;;;;;;;8293326;28;20369;-62
2022/01/31 08:24:46;;;;;;;3.20;1.47;;;;;;;;;;8294044;28;20306;-63
2022/01/31 08:29:09;;;;;;;3.67;1.63;;;;;;;;;;8290829;28;20294;-62
2022/01/31 08:33:32;;;;;;;2.80;1.33;;;;;;;;;;8291417;28;20134;-62
2022/01/31 08:37:33;;;;;;;3.10;1.20;;;;;;;;;;8291958;28;20048;-62
2022/01/31 08:41:37;;;;;;;2.05;1.30;;;;;;;;;;8292290;28;20030;-62
2022/01/31 08:45:37;;;;;;;5.25;1.42;;;;;;;;;;8291618;28;20040;-63
2022/01/31 08:49:38;;;;;;;5.43;1.47;;;;;;;;;;8289155;28;20028;-62
2022/01/31 08:53:39;;;;;;;4.88;1.48;;;;;;;;;;8290854;28;20741;-63
2022/01/31 08:57:39;;;;;;;6.20;1.98;;;;;;;;;;8293915;28;20480;-63
2022/01/31 09:01:40;;;;;;;5.30;1.43;;;;;;;;;;8289059;28;20072;-63
2022/01/31 09:05:40;;;;;;;3.30;1.20;;;;;;;;;;8291077;28;20341;-62
2022/01/31 09:09:41;;;;;;;5.20;1.37;;;;;;;;;;8289800;28;20026;-62
2022/01/31 09:13:41;;;;;;;5.10;1.27;;;;;;;;;;8289689;28;20315;-62
2022/01/31 09:17:41;;;;;;;3.42;1.33;;;;;;;;;;8291280;28;20128;-62
2022/01/31 09:21:41;;;;;;;5.57;1.38;;;;;;;;;;8288738;28;20021;-62
2022/01/31 09:25:46;;;;;;;3.83;1.27;;;;;;;;;;8290719;28;20025;-63
2022/01/31 09:29:46;;;;;;;6.35;1.40;;;;;;;;;;8288013;28;20025;-62
2022/01/31 09:33:47;;;;;;;5.90;1.30;;;;;;;;;;8288923;28;20438;-62
2022/01/31 09:37:47;;;;;;;2.00;0.98;;;;;;;;;;8292246;28;20822;-62
2022/01/31 09:41:53;;;;;;;7.30;1.55;;;;;;;;;;8289701;28;20029;-62
2022/01/31 09:49:54;;;;;;;6.00;1.40;;;;;;;;;;8290670;28;20361;-62
2022/01/31 09:53:56;;;;;;;5.25;1.58;;;;;;;;;;8288943;28;20036;-62
2022/01/31 09:57:56;;;;;;;8.25;1.58;;;;;;;;;;8290868;28;20029;-62
2022/01/31 10:01:57;;;;;;;6.18;1.33;;;;;;;;;;8289127;28;20461;-63
2022/01/31 10:05:58;;;;;;;4.75;1.40;;;;;;;;;;8288436;28;20032;-62
2022/01/31 10:10:02;;;;;;;5.90;1.27;;;;;;;;;;8290118;28;20672;-62
2022/01/31 10:18:37;;;;;;;;;;;;;;;;;;8286273;28;20521;-62
2022/01/31 10:22:38;;;;;;;5.20;1.33;;;;;;;;;;8291927;28;20338;-62
2022/01/31 10:26:38;;;;;;;2.15;1.20;;;;;;;;;;8289451;28;20099;-62
2022/01/31 10:30:39;;;;;;;5.38;1.20;;;;;;;;;;8287227;28;20648;-62
2022/01/31 10:34:44;;;;;;;8.48;1.40;;;;;;;;;;8290093;28;20657;-62
2022/01/31 10:38:47;;;;;;;5.60;1.75;;;;;;;;;;8285775;28;20219;-62
2022/01/31 10:55:54;;;;;;;4.00;0.95;;;;;;;;;;8288297;28;20538;-63
2022/01/31 11:00:00;;;;;;;4.65;1.10;;;;;;;;;;8291884;28;20021;-62
2022/01/31 11:04:03;;;;;;;8.45;1.35;;;;;;;;;;8293073;28;20126;-63
2022/01/31 11:08:16;;;;;;;2.30;0.80;;;;;;;;;;8296024;28;20033;-62
2022/01/31 11:12:19;;;;;;;2.42;0.93;;;;;;;;;;8293545;28;20022;-63
2022/01/31 11:16:20;;;;;;;5.80;1.23;;;;;;;;;;8296164;28;20064;-62
2022/01/31 11:20:20;;;;;;;4.30;1.10;;;;;;;;;;8293470;28;20140;-62
2022/01/31 11:24:22;;;;;;;4.57;0.85;;;;;;;;;;8293581;28;20037;-62
2022/01/31 11:28:28;;;;;;;1.92;0.75;;;;;;;;;;8294915;28;20100;-63
2022/01/31 11:32:29;;;;;;;2.33;1.10;;;;;;;;;;8293128;28;20518;-62
2022/01/31 11:36:29;;;;;;;2.95;1.30;;;;;;;;;;8292394;28;20112;-62
2022/01/31 11:40:30;;;;;;;6.10;0.80;;;;;;;;;;8295089;28;20036;-63
2022/01/31 11:44:33;;;;;;;3.08;1.00;;;;;;;;;;8292007;28;20032;-62
2022/01/31 11:48:33;;;;;;;2.15;1.00;;;;;;;;;;8292305;28;21846;-62
2022/01/31 11:52:53;;;;;;;1.63;0.80;;;;;;;;;;8292451;28;20220;-62
2022/01/31 11:56:54;;;;;;;2.35;1.02;;;;;;;;;;8292617;28;20670;-62
2022/01/31 12:00:54;;;;;;;3.85;0.82;;;;;;;;;;8291577;28;20118;-63
2022/01/31 12:04:59;;;;;;;3.42;0.93;;;;;;;;;;8293758;28;20118;-62
2022/01/31 12:09:03;;;;;;;2.65;0.85;;;;;;;;;;8291681;28;20058;-62
2022/01/31 12:13:16;;;;;;;5.00;1.50;;;;;;;;;;8292766;28;20047;-62
2022/01/31 12:17:37;;;;;;;3.42;1.20;;;;;;;;;;8290206;28;20100;-62
2022/01/31 12:22:00;;;;;;;4.18;1.13;;;;;;;;;;8292143;28;20435;-62
2022/01/31 12:26:00;;;;;;;2.80;0.63;;;;;;;;;;8291462;28;20587;-62
2022/01/31 12:30:01;;;;;;;2.85;1.10;;;;;;;;;;8290069;28;20009;-62
2022/01/31 12:34:03;;;;;;;1.65;0.70;;;;;;;;;;8290405;28;20107;-62
2022/01/31 12:38:05;;;;;;;3.03;0.90;;;;;;;;;;8292027;28;20166;-63
2022/01/31 12:42:41;;;;;;;1.80;0.75;;;;;;;;;;8291800;28;20110;-62
2022/01/31 12:46:49;;;;;;;2.20;0.88;;;;;;;;;;8291409;28;20168;-63
2022/01/31 12:50:49;;;;;;;3.83;1.10;;;;;;;;;;8289476;28;20033;-62
2022/01/31 12:54:53;;;;;;;3.20;1.00;;;;;;;;;;8292193;28;20858;-62
2022/01/31 12:59:04;;;;;;;2.22;1.00;;;;;;;;;;8289749;28;20157;-62
2022/01/31 13:03:04;;;;;;;2.60;0.88;;;;;;;;;;8290757;28;20709;-63
2022/01/31 13:07:09;;;;;;;2.55;0.90;;;;;;;;;;8291940;28;20065;-62
2022/01/31 13:11:09;;;;;;;;;;;;;;;;;;8287207;28;20017;-62
2022/01/31 13:15:20;;;;;;;5.78;0.77;;;;;;;;;;8291403;28;19917;-63
2022/01/31 13:19:24;;;;;;;4.15;0.98;;;;;;;;;;8291218;28;20090;-62
2022/01/31 13:23:26;;;;;;;4.70;1.05;;;;;;;;;;8283778;28;20687;-62
2022/01/31 13:27:31;;;;;;;3.95;1.17;;;;;;;;;;8292001;28;20472;-63
2022/01/31 13:31:39;;;;;;;2.35;1.00;;;;;;;;;;8290881;28;20041;-63
2022/01/31 13:35:42;;;;;;;3.35;1.00;;;;;;;;;;8296212;28;20080;-62
2022/01/31 13:39:52;;;;;;;5.80;1.20;;;;;;;;;;8296747;28;20039;-63
2022/01/31 13:43:59;;;;;;;5.63;1.40;;;;;;;;;;8297374;28;20094;-63
2022/01/31 13:48:03;;;;;;;4.45;1.30;;;;;;;;;;8298514;28;20545;-62
2022/01/31 13:52:10;;;;;;;3.65;1.33;;;;;;;;;;8295638;28;20025;-63
2022/01/31 13:56:12;;;;;;;4.75;1.20;;;;;;;;;;8297953;28;20973;-62
2022/01/31 14:00:12;;;;;;;4.05;1.05;;;;;;;;;;8296364;28;20036;-62
2022/01/31 14:04:15;;;;;;;7.55;1.50;;;;;;;;;;8297193;28;20032;-63
2022/01/31 14:08:15;;;;;;;4.72;1.50;;;;;;;;;;8294190;28;20945;-63
2022/01/31 14:12:15;;;;;;;5.20;1.20;;;;;;;;;;8295076;28;20114;-62
2022/01/31 14:16:17;;;;;;;4.93;1.52;;;;;;;;;;8294665;28;20335;-62
2022/01/31 14:20:19;;;;;;;7.20;1.38;;;;;;;;;;8294840;28;20033;-62
2022/01/31 14:24:25;;;;;;;3.30;1.00;;;;;;;;;;8295492;28;20033;-62
2022/01/31 14:28:39;;;;;;;3.75;0.90;;;;;;;;;;8297206;28;20035;-62
2022/01/31 14:32:39;;;;;;;4.00;1.02;;;;;;;;;;8293755;28;20064;-62
2022/01/31 14:36:41;;;;;;;5.38;1.25;;;;;;;;;;8295983;28;20556;-62
2022/01/31 14:49:13;;;;;;;4.22;0.90;;;;;;;;;;8295596;28;20480;-62
2022/01/31 14:53:15;;;;;;;3.65;1.02;;;;;;;;;;8298578;28;20033;-62
2022/01/31 14:57:16;;;;;;;3.05;0.80;;;;;;;;;;8299795;28;20029;-62
2022/01/31 15:01:16;;;;;;;4.63;1.67;;;;;;;;;;8294157;28;20118;-62
2022/01/31 15:05:17;;;;;;;2.33;0.83;;;;;;;;;;8289507;28;20032;-63
2022/01/31 15:09:17;;;;;;;2.45;0.80;;;;;;;;;;8288211;28;20287;-62
2022/01/31 15:13:18;;;;;;;1.20;0.70;;;;;;;;;;8295588;28;20079;-62
2022/01/31 15:17:18;;;;;;;9.48;1.52;;;;;;;;;;8295899;28;20161;-62
2022/01/31 15:21:20;;;;;;;2.95;0.80;;;;;;;;;;8294496;28;20033;-62
2022/01/31 15:25:21;;;;;;;3.58;1.00;;;;;;;;;;8290595;28;20025;-63
2022/01/31 15:29:21;;;;;;;3.47;1.07;;;;;;;;;;8292092;28;20017;-62
2022/01/31 15:33:21;;;;;;;2.65;1.10;;;;;;;;;;8294815;28;20982;-64
2022/01/31 15:37:23;;;;;;;1.50;0.80;;;;;;;;;;8294288;28;20040;-62
2022/01/31 15:41:23;;;;;;;2.28;0.80;;;;;;;;;;8294136;28;20439;-63
2022/01/31 15:45:23;;;;;;;2.45;0.90;;;;;;;;;;8290061;28;20045;-63
2022/01/31 15:49:23;;;;;;;2.05;0.80;;;;;;;;;;8291506;28;20032;-62
2022/01/31 15:53:24;;;;;;;1.15;0.70;;;;;;;;;;8291977;28;20146;-62
2022/01/31 15:57:24;;;;;;;1.50;1.00;;;;;;;;;;8292663;28;21420;-62
2022/01/31 16:01:27;;;;;;;1.83;0.75;;;;;;;;;;8291707;28;20041;-62
2022/01/31 16:05:27;;;;;;;4.85;1.35;;;;;;;;;;8294353;28;20560;-62
2022/01/31 16:09:28;;;;;;;4.18;0.90;;;;;;;;;;8289309;28;20025;-62
2022/01/31 16:13:28;;;;;;;2.15;0.68;;;;;;;;;;8292357;28;20021;-62
2022/01/31 16:17:28;;;;;;;3.75;0.90;;;;;;;;;;8293457;28;20045;-62
2022/01/31 16:21:29;;;;;;;1.15;0.70;;;;;;;;;;8289076;28;20029;-62
2022/01/31 16:25:29;;;;;;;1.77;0.73;;;;;;;;;;8292445;28;20124;-62
2022/01/31 16:29:29;;;;;;;0.87;0.60;;;;;;;;;;8291981;28;20048;-62
2022/01/31 16:33:29;;;;;;;4.32;0.80;;;;;;;;;;8294007;28;20284;-62
2022/01/31 16:37:30;;;;;;;2.08;0.85;;;;;;;;;;8293339;28;20994;-62
2022/01/31 16:41:30;;;;;;;1.05;0.63;;;;;;;;;;8289692;28;20041;-62
2022/01/31 16:45:30;;;;;;;2.10;0.93;;;;;;;;;;8290319;28;20071;-62
2022/01/31 16:49:31;;;;;;;1.35;0.80;;;;;;;;;;8290572;28;20600;-62
2022/01/31 16:53:32;;;;;;;2.05;0.60;;;;;;;;;;8290069;28;20099;-62
2022/01/31 16:57:32;;;;;;;2.28;0.70;;;;;;;;;;8287640;28;20103;-62
2022/01/31 17:01:32;;;;;;;1.48;0.60;;;;;;;;;;8289182;28;20049;-62
2022/01/31 17:05:32;;;;;;;3.05;0.75;;;;;;;;;;8291292;28;20695;-62
2022/01/31 17:09:33;;;;;;;2.40;0.80;;;;;;;;;;8285364;28;20086;-62
2022/01/31 17:13:35;;;;;;;0.70;0.70;;;;;;;;;;8291493;28;20079;-62
2022/01/31 17:17:36;;;;;;;1.92;0.80;;;;;;;;;;8290601;28;20441;-63
2022/01/31 17:21:38;;;;;;;1.75;0.68;;;;;;;;;;8291326;28;20060;-62
2022/01/31 17:25:38;;;;;;;1.25;0.60;;;;;;;;;;8290206;28;20013;-62
2022/01/31 17:29:38;;;;;;;1.60;0.70;;;;;;;;;;8292466;28;20024;-62
2022/01/31 17:33:42;;;;;;;0.60;0.60;;;;;;;;;;8290895;28;20611;-62
2022/01/31 17:37:43;;;;;;;1.03;0.77;;;;;;;;;;8289408;28;20222;-62
2022/01/31 17:41:43;;;;;;;2.75;0.80;;;;;;;;;;8289439;28;20025;-62
2022/01/31 17:45:43;;;;;;;3.17;0.70;;;;;;;;;;8290091;28;20593;-62
2022/01/31 17:49:44;;;;;;;2.22;0.70;;;;;;;;;;8287977;28;20025;-62
2022/01/31 17:53:44;;;;;;;2.38;0.63;;;;;;;;;;8291151;28;20533;-62
2022/01/31 17:57:45;;;;;;;0.57;0.50;;;;;;;;;;8288045;28;20022;-62
2022/01/31 18:01:45;;;;;;;1.25;0.50;;;;;;;;;;8289233;28;20120;-61
2022/01/31 18:05:45;;;;;;;1.55;1.02;;;;;;;;;;8286660;28;20024;-62
2022/01/31 18:09:46;;;;;;;2.90;0.80;;;;;;;;;;8287500;28;20061;-62
2022/01/31 18:13:47;;;;;;;0.88;0.75;;;;;;;;;;8290806;28;20492;-62
2022/01/31 18:17:47;;;;;;;2.72;0.70;;;;;;;;;;8287803;28;20435;-62
2022/01/31 18:21:47;;;;;;;1.92;0.90;;;;;;;;;;8288417;28;20013;-62
2022/01/31 18:25:48;;;;;;;3.30;0.68;;;;;;;;;;8290785;28;20076;-62
2022/01/31 18:29:48;;;;;;;0.80;0.70;;;;;;;;;;8287524;28;20031;-62
2022/01/31 18:33:50;;;;;;;1.50;0.60;;;;;;;;;;8287262;28;20424;-61
2022/01/31 18:37:50;;;;;;;0.70;0.55;;;;;;;;;;8287858;28;20034;-62
2022/01/31 18:41:50;;;;;;;3.83;1.08;;;;;;;;;;8286106;28;20760;-61
2022/01/31 18:45:52;;;;;;;2.53;0.88;;;;;;;;;;8287672;28;20045;-62
2022/01/31 18:49:54;;;;;;;1.58;0.73;;;;;;;;;;8286825;28;20397;-61
2022/01/31 18:53:55;;;;;;;4.63;1.52;;;;;;;;;;8285976;28;20036;-62
2022/01/31 18:57:55;;;;;;;1.35;0.63;;;;;;;;;;8286562;28;20801;-62
2022/01/31 19:01:55;;;;;;;1.70;0.88;;;;;;;;;;8285247;28;20260;-61
2022/01/31 19:05:55;;;;;;;1.75;0.70;;;;;;;;;;8286795;28;20036;-63
2022/01/31 19:09:56;;;;;;;1.40;0.80;;;;;;;;;;8285472;28;20021;-62
2022/01/31 19:14:07;;;;;;;1.70;0.85;;;;;;;;;;8285277;28;20267;-61
2022/01/31 19:18:07;;;;;;;1.13;0.73;;;;;;;;;;8286556;28;20137;-62
2022/01/31 19:22:08;;;;;;;2.90;1.10;;;;;;;;;;8289458;28;20040;-61
2022/01/31 19:26:08;;;;;;;1.85;1.02;;;;;;;;;;8292211;28;20130;-62
2022/01/31 19:30:08;;;;;;;0.93;0.60;;;;;;;;;;8293740;28;20032;-63
2022/01/31 19:34:09;;;;;;;1.77;0.60;;;;;;;;;;8293826;28;20528;-62
2022/01/31 19:38:11;;;;;;;2.17;0.90;;;;;;;;;;8295474;28;20392;-62
2022/01/31 19:46:37;;;;;;;1.67;1.10;;;;;;;;;;8291648;28;20072;-62
2022/01/31 19:50:38;;;;;;;0.98;0.77;;;;;;;;;;8289674;28;20025;-61
2022/01/31 19:54:39;;;;;;;1.75;0.60;;;;;;;;;;8296436;28;20753;-62
2022/01/31 19:58:39;;;;;;;1.58;0.90;;;;;;;;;;8291269;28;20036;-62
2022/01/31 20:02:40;;;;;;;0.70;0.60;;;;;;;;;;8289609;28;20042;-62
2022/01/31 20:06:42;;;;;;;1.45;0.65;;;;;;;;;;8291254;28;20033;-61
2022/01/31 20:10:48;;;;;;;1.38;0.68;;;;;;;;;;8292311;28;20499;-61
2022/01/31 20:14:48;;;;;;;3.03;0.70;;;;;;;;;;8295162;28;20022;-61
2022/01/31 20:18:49;;;;;;;1.30;0.70;;;;;;;;;;8292498;28;20382;-61
2022/01/31 20:22:50;;;;;;;0.63;0.50;;;;;;;;;;8293095;28;20032;-61
2022/01/31 20:26:50;;;;;;;1.23;0.60;;;;;;;;;;8292004;28;20037;-61
2022/01/31 20:30:51;;;;;;;1.83;0.60;;;;;;;;;;8291609;28;20450;-62
2022/01/31 20:34:51;;;;;;;1.35;0.70;;;;;;;;;;8294697;28;20045;-62
2022/01/31 20:38:59;;;;;;;0.52;0.52;;;;;;;;;;8291329;28;20162;-61
2022/01/31 20:42:59;;;;;;;1.55;0.50;;;;;;;;;;8291383;28;20025;-62
2022/01/31 20:46:59;;;;;;;0.73;0.57;;;;;;;;;;8290179;28;20060;-62
2022/01/31 20:50:59;;;;;;;0.52;0.40;;;;;;;;;;8292568;28;20021;-61
2022/01/31 20:55:00;;;;;;;0.55;0.40;;;;;;;;;;8291312;28;20033;-62
2022/01/31 20:59:00;;;;;;;3.03;0.80;;;;;;;;;;8292388;28;20339;-62
2022/01/31 21:03:00;;;;;;;0.98;0.50;;;;;;;;;;8290717;28;20792;-62
2022/01/31 21:07:00;;;;;;;0.47;0.47;;;;;;;;;;8290975;28;20029;-62
2022/01/31 21:11:04;;;;;;;1.77;0.50;;;;;;;;;;8288364;28;20028;-62
2022/01/31 21:15:05;;;;;;;0.95;0.60;;;;;;;;;;8291024;28;20544;-62
2022/01/31 21:19:05;;;;;;;2.05;0.63;;;;;;;;;;8290036;28;20484;-61
2022/01/31 21:23:05;;;;;;;2.33;0.90;;;;;;;;;;8292114;28;20025;-62
2022/01/31 21:27:05;;;;;;;1.45;0.80;;;;;;;;;;8291970;28;20295;-61
2022/01/31 21:31:06;;;;;;;3.37;0.97;;;;;;;;;;8290761;28;20554;-61
2022/01/31 21:35:08;;;;;;;1.48;0.82;;;;;;;;;;8290970;28;20272;-62
2022/01/31 21:39:09;;;;;;;2.25;0.70;;;;;;;;;;8287246;28;20541;-62
2022/01/31 21:43:09;;;;;;;0.60;0.60;;;;;;;;;;8288913;28;20064;-61
2022/01/31 21:47:09;;;;;;;0.65;0.60;;;;;;;;;;8289113;28;20457;-61
2022/01/31 21:51:09;;;;;;;1.27;0.67;;;;;;;;;;8285390;28;20572;-62
2022/01/31 21:55:16;;;;;;;3.00;0.80;;;;;;;;;;8289670;28;20261;-62
2022/01/31 21:59:16;;;;;;;1.75;0.70;;;;;;;;;;8290104;28;20033;-62
2022/01/31 22:03:16;;;;;;;0.80;0.60;;;;;;;;;;8290128;28;20445;-62
2022/01/31 22:07:17;;;;;;;2.20;0.90;;;;;;;;;;8289512;28;20294;-61
2022/01/31 22:15:17;;;;;;;2.28;1.00;;;;;;;;;;8290052;28;20025;-61
2022/01/31 22:19:18;;;;;;;2.92;1.10;;;;;;;;;;8289872;28;20024;-61
2022/01/31 22:23:18;;;;;;;3.60;1.17;;;;;;;;;;8287974;28;20470;-61
2022/01/31 22:27:18;;;;;;;1.95;1.10;;;;;;;;;;8289826;28;21189;-61
2022/01/31 22:31:18;;;;;;;2.30;1.10;;;;;;;;;;8288339;28;20080;-61
2022/01/31 22:35:21;;;;;;;4.43;1.50;;;;;;;;;;8291048;28;20201;-61
2022/01/31 22:39:21;;;;;;;5.90;1.73;;;;;;;;;;8287734;28;20068;-61
2022/01/31 22:43:21;;;;;;;4.40;1.42;;;;;;;;;;8289038;28;20025;-61
2022/01/31 22:47:21;;;;;;;6.97;1.77;;;;;;;;;;8290236;28;20282;-61
2022/01/31 22:51:22;;;;;;;5.20;1.50;;;;;;;;;;8292262;28;20595;-61
2022/01/31 22:55:22;;;;;;;5.75;1.77;;;;;;;;;;8299926;28;20022;-62
2022/01/31 22:59:22;;;;;;;4.83;1.33;;;;;;;;;;8301670;28;20036;-62
2022/01/31 23:03:24;;;;;;;7.10;1.80;;;;;;;;;;8302210;28;20271;-62
2022/01/31 23:07:24;;;;;;;7.75;2.00;;;;;;;;;;8301017;28;20025;-62
2022/01/31 23:11:25;;;;;;;11.90;2.17;;;;;;;;;;8303050;28;20031;-62
2022/01/31 23:15:39;;;;;;;7.00;1.90;;;;;;;;;;8298724;28;20280;-62
